Time;durP1;ratioP1;P1;durP2;ratioP2;P2;SDS_P1;SDS_P2;PMS_P1;PMS_P2;Temp;Humidity;BMP_temperature;BMP_pressure;BME280_temperature;BME280_humidity;BME280_pressure;Samples;Min_cycle;Max_cycle;Signal;HPM_P1;HPM_P2
2023/09/12 00:01:19;;;;;;;;;6.00;6.00;;;;;24.55;100.00;100986.06;5066624;28;68168;-76
2023/09/12 00:03:44;;;;;;;;;7.00;6.33;;;;;24.52;100.00;100983.47;5077380;27;48129;-75
2023/09/12 00:06:10;;;;;;;;;9.00;6.33;;;;;24.46;100.00;100982.88;5077752;27;45857;-75
2023/09/12 00:08:35;;;;;;;;;5.00;5.00;;;;;24.45;100.00;100975.72;5077002;27;61532;-75
2023/09/12 00:11:03;;;;;;;;;6.00;6.00;;;;;24.44;100.00;100976.66;5075062;28;70615;-75
2023/09/12 00:13:29;;;;;;;;;7.00;6.00;;;;;24.40;100.00;100986.75;5077021;28;45390;-75
2023/09/12 00:15:54;;;;;;;;;7.33;7.33;;;;;24.38;100.00;100982.34;5069561;27;45802;-75
2023/09/12 00:18:19;;;;;;;;;5.33;5.33;;;;;24.35;100.00;100985.16;5075201;27;62751;-75
2023/09/12 00:20:44;;;;;;;;;6.67;6.00;;;;;24.35;100.00;100988.75;5077227;28;57469;-75
2023/09/12 00:23:10;;;;;;;;;7.33;7.33;;;;;24.31;100.00;100993.38;5076540;28;67441;-75
2023/09/12 00:25:35;;;;;;;;;6.67;6.67;;;;;24.28;100.00;100990.78;5078310;28;45460;-75
2023/09/12 00:28:00;;;;;;;;;8.00;8.00;;;;;24.28;100.00;100987.22;5076323;27;60655;-75
2023/09/12 00:30:26;;;;;;;;;6.33;6.33;;;;;24.26;100.00;100983.72;5077115;27;69767;-75
2023/09/12 00:32:51;;;;;;;;;8.33;7.33;;;;;24.26;100.00;100994.50;5077146;27;45208;-75
2023/09/12 00:35:16;;;;;;;;;8.67;8.67;;;;;24.22;100.00;100999.16;5076736;28;63137;-75
2023/09/12 00:37:42;;;;;;;;;8.33;8.33;;;;;24.20;100.00;101000.19;5076480;27;61827;-75
2023/09/12 00:40:07;;;;;;;;;8.33;7.00;;;;;24.15;100.00;100996.81;5068582;27;51208;-75
2023/09/12 00:42:32;;;;;;;;;11.00;10.00;;;;;24.14;100.00;100995.94;5069896;28;45319;-75
2023/09/12 00:44:58;;;;;;;;;8.67;8.33;;;;;24.11;100.00;100990.66;5066092;27;64085;-75
2023/09/12 00:47:23;;;;;;;;;10.00;9.00;;;;;24.07;100.00;100994.41;5076706;28;61919;-75
2023/09/12 00:49:50;;;;;;;;;8.00;8.00;;;;;24.04;100.00;100992.72;5073696;28;56660;-75
2023/09/12 00:52:17;;;;;;;;;8.67;8.67;;;;;24.00;100.00;100988.41;5065568;28;45649;-75
2023/09/12 00:54:42;;;;;;;;;12.33;12.00;;;;;23.98;100.00;100978.63;5074597;28;66452;-75
2023/09/12 00:57:07;;;;;;;;;10.00;8.67;;;;;23.96;100.00;100992.16;5076243;27;61463;-75
2023/09/12 00:59:33;;;;;;;;;8.33;8.33;;;;;23.91;100.00;100991.47;5072901;28;60459;-75
2023/09/12 01:01:59;;;;;;;;;10.00;10.00;;;;;23.91;100.00;100985.22;5073922;28;64795;-76
2023/09/12 01:04:24;;;;;;;;;10.00;10.00;;;;;23.88;100.00;100988.06;5076145;28;45489;-75
2023/09/12 01:06:50;;;;;;;;;9.33;9.00;;;;;23.84;100.00;100983.72;5075257;28;60283;-75
2023/09/12 01:09:15;;;;;;;;;14.67;8.67;;;;;23.81;100.00;100982.03;5075657;28;47288;-74
2023/09/12 01:11:41;;;;;;;;;10.00;10.00;;;;;23.77;100.00;100985.81;5073436;28;66128;-75
2023/09/12 01:14:06;;;;;;;;;9.67;9.67;;;;;23.76;100.00;100984.06;5067643;28;64868;-75
2023/09/12 01:16:32;;;;;;;;;11.00;10.00;;;;;23.75;100.00;100983.16;5076034;28;48416;-75
2023/09/12 01:18:57;;;;;;;;;10.00;10.00;;;;;23.76;100.00;100979.53;5071518;27;63384;-74
2023/09/12 01:21:50;;;;;;;;;9.00;8.00;;;;;23.78;100.00;100977.63;5074092;28;67418;-75
2023/09/12 01:24:33;;;;;;;;;12.00;11.33;;;;;23.72;100.00;100972.50;5060554;28;45350;-74
2023/09/12 01:27:26;;;;;;;;;8.67;8.67;;;;;23.72;100.00;100975.19;5075921;27;45445;-75
2023/09/12 01:29:56;;;;;;;;;10.67;10.67;;;;;23.69;100.00;100958.25;5073887;28;47531;-74
2023/09/12 01:32:22;;;;;;;;;10.33;9.00;;;;;23.66;100.00;100966.50;5076164;28;46486;-75
2023/09/12 01:34:47;;;;;;;;;13.33;12.33;;;;;23.67;100.00;100973.63;5076010;27;63365;-74
2023/09/12 01:37:13;;;;;;;;;10.33;9.67;;;;;23.61;100.00;100976.56;5076728;27;45346;-75
2023/09/12 01:39:38;;;;;;;;;11.67;10.00;;;;;23.57;100.00;100986.56;5076801;28;47488;-75
2023/09/12 01:42:04;;;;;;;;;12.33;12.00;;;;;23.55;100.00;100987.59;5076285;27;46110;-74
2023/09/12 01:44:30;;;;;;;;;13.67;13.33;;;;;23.55;100.00;100984.91;5074625;28;45516;-75
2023/09/12 01:46:57;;;;;;;;;18.00;14.33;;;;;23.55;100.00;100996.56;5069262;28;60774;-75
2023/09/12 01:49:25;;;;;;;;;12.67;12.67;;;;;23.51;100.00;100992.22;5066914;27;55808;-74
2023/09/12 01:51:51;;;;;;;;;12.00;12.00;;;;;23.50;100.00;100988.66;5066085;27;45514;-75
2023/09/12 01:54:17;;;;;;;;;16.33;13.67;;;;;23.48;100.00;100979.72;5070081;27;45478;-75
2023/09/12 01:56:42;;;;;;;;;13.67;13.67;;;;;23.46;100.00;100995.09;5076031;27;62191;-76
2023/09/12 01:59:08;;;;;;;;;18.00;16.00;;;;;23.40;100.00;100986.38;5073885;28;67186;-75
2023/09/12 02:01:33;;;;;;;;;15.33;13.33;;;;;23.38;100.00;100983.72;5074277;28;71183;-75
2023/09/12 02:03:59;;;;;;;;;13.67;13.33;;;;;23.37;100.00;100986.50;5075681;27;66037;-75
2023/09/12 02:06:24;;;;;;;;;17.33;15.00;;;;;23.35;100.00;100989.25;5075982;27;58483;-75
2023/09/12 02:08:49;;;;;;;;;13.33;13.00;;;;;23.34;100.00;100992.03;5075902;27;46384;-75
2023/09/12 02:11:16;;;;;;;;;12.67;12.67;;;;;23.32;100.00;101000.13;5076192;27;46154;-75
2023/09/12 02:13:41;;;;;;;;;18.00;14.33;;;;;23.30;100.00;100991.25;5075434;27;60768;-75
2023/09/12 02:16:07;;;;;;;;;14.67;12.00;;;;;23.27;100.00;100996.75;5075527;27;63180;-75
2023/09/12 02:18:32;;;;;;;;;15.67;13.00;;;;;23.25;100.00;100998.63;5071645;27;46269;-74
2023/09/12 02:21:01;;;;;;;;;13.00;10.67;;;;;23.24;100.00;100996.88;5073870;27;70655;-75
2023/09/12 02:23:26;;;;;;;;;14.00;14.00;;;;;23.22;100.00;100994.25;5075361;27;57095;-75
2023/09/12 02:25:51;;;;;;;;;15.00;11.67;;;;;23.18;100.00;100989.91;5073976;27;61850;-75
2023/09/12 02:28:17;;;;;;;;;15.00;13.33;;;;;23.16;100.00;100989.06;5075489;28;61175;-75
2023/09/12 02:30:42;;;;;;;;;17.00;13.00;;;;;23.15;100.00;100981.94;5075832;27;45556;-75
2023/09/12 02:33:07;;;;;;;;;14.00;12.67;;;;;23.15;100.00;100984.63;5075276;27;62400;-75
2023/09/12 02:35:32;;;;;;;;;14.33;10.00;;;;;23.15;100.00;100987.31;5070263;27;53011;-75
2023/09/12 02:37:58;;;;;;;;;14.33;14.33;;;;;23.16;100.00;100982.81;5074941;27;68415;-75
2023/09/12 02:40:24;;;;;;;;;12.67;12.67;;;;;23.21;100.00;100979.00;5071001;28;45331;-75
2023/09/12 02:42:49;;;;;;;;;14.00;12.00;;;;;23.24;100.00;100983.41;5072772;28;45314;-75
2023/09/12 02:45:15;;;;;;;;;10.33;9.33;;;;;23.25;100.00;100990.53;5074977;27;61983;-75
2023/09/12 02:47:40;;;;;;;;;12.33;12.33;;;;;23.26;100.00;100989.59;5070743;27;72467;-75
2023/09/12 02:50:06;;;;;;;;;13.33;11.33;;;;;23.26;100.00;100986.91;5067507;27;45867;-75
2023/09/12 02:52:31;;;;;;;;;12.00;11.67;;;;;23.30;100.00;100991.25;5063980;28;45565;-75
2023/09/12 02:54:56;;;;;;;;;15.33;15.33;;;;;23.29;100.00;100989.50;5073663;28;62894;-75
2023/09/12 02:57:22;;;;;;;;;11.00;11.00;;;;;23.27;100.00;100981.44;5074842;27;71073;-76
2023/09/12 02:59:47;;;;;;;;;18.33;12.67;;;;;23.29;100.00;100978.72;5075283;27;46539;-75
2023/09/12 03:02:12;;;;;;;;;11.33;10.33;;;;;23.31;100.00;100962.47;5076154;28;47813;-75
2023/09/12 03:04:38;;;;;;;;;14.67;12.00;;;;;23.26;100.00;100974.31;5071829;27;61276;-75
2023/09/12 03:07:03;;;;;;;;;12.67;10.33;;;;;23.28;100.00;100968.88;5079030;27;46390;-74
2023/09/12 03:09:28;;;;;;;;;15.00;13.67;;;;;23.26;100.00;100976.13;5074894;27;69851;-75
2023/09/12 03:11:54;;;;;;;;;17.00;13.67;;;;;23.23;100.00;100979.84;5077134;28;60524;-75
2023/09/12 03:14:19;;;;;;;;;14.67;13.00;;;;;23.19;100.00;100975.50;5078160;27;61239;-75
2023/09/12 03:16:44;;;;;;;;;12.67;12.67;;;;;23.17;100.00;100971.09;5077883;27;47361;-75
2023/09/12 03:19:10;;;;;;;;;12.33;12.33;;;;;23.17;100.00;100979.19;5075607;27;46705;-75
2023/09/12 03:21:35;;;;;;;;;17.67;17.00;;;;;23.13;100.00;100983.81;5068559;28;59715;-75
2023/09/12 03:24:00;;;;;;;;;16.33;15.33;;;;;23.14;100.00;100979.31;5072904;28;62153;-75
2023/09/12 03:26:26;;;;;;;;;13.00;13.00;;;;;23.12;100.00;100990.16;5069761;27;69681;-75
2023/09/12 03:28:52;;;;;;;;;23.00;16.00;;;;;23.15;100.00;100991.84;5074769;28;45192;-75
2023/09/12 03:31:18;;;;;;;;;14.33;13.00;;;;;23.14;100.00;100992.78;5078808;27;45201;-75
2023/09/12 03:33:47;;;;;;;;;13.00;13.00;;;;;23.14;100.00;100982.88;5078416;27;45649;-75
2023/09/12 03:36:13;;;;;;;;;10.67;10.33;;;;;23.14;100.00;100992.78;5078252;27;47174;-75
2023/09/12 03:38:38;;;;;;;;;10.67;10.00;;;;;23.13;100.00;101000.00;5078523;27;45285;-76
2023/09/12 03:41:03;;;;;;;;;13.00;13.00;;;;;23.16;100.00;101004.38;5077746;27;66508;-75
2023/09/12 03:43:29;;;;;;;;;17.33;14.67;;;;;23.19;100.00;101002.44;5074625;27;60930;-75
2023/09/12 03:45:55;;;;;;;;;14.00;12.00;;;;;23.18;100.00;101000.69;5071739;28;47113;-75
2023/09/12 03:48:20;;;;;;;;;11.00;11.00;;;;;23.19;100.00;100994.38;5074288;27;64025;-75
2023/09/12 03:50:46;;;;;;;;;16.67;13.67;;;;;23.20;100.00;101001.50;5067861;28;65113;-76
2023/09/12 03:53:11;;;;;;;;;13.00;11.00;;;;;23.22;100.00;101002.34;5064857;27;62137;-76
2023/09/12 03:55:36;;;;;;;;;15.00;12.00;;;;;23.22;100.00;100994.25;5077923;28;46344;-75
2023/09/12 03:58:02;;;;;;;;;12.33;11.00;;;;;23.24;100.00;100999.56;5064378;27;45176;-75
2023/09/12 04:00:27;;;;;;;;;17.00;14.00;;;;;23.22;100.00;100998.72;5078111;27;45231;-76
2023/09/12 04:02:53;;;;;;;;;14.67;13.00;;;;;23.24;100.00;101002.28;5078316;27;45421;-75
2023/09/12 04:05:18;;;;;;;;;11.33;11.00;;;;;23.21;100.00;101003.25;5076868;27;61443;-75
2023/09/12 04:07:44;;;;;;;;;16.00;12.33;;;;;23.23;100.00;101000.53;5076785;27;68544;-75
2023/09/12 04:10:09;;;;;;;;;13.33;11.67;;;;;23.26;100.00;101016.53;5072880;27;61083;-75
2023/09/12 04:12:34;;;;;;;;;14.33;12.00;;;;;23.26;100.00;101016.53;5078025;27;45608;-75
2023/09/12 04:15:00;;;;;;;;;11.33;10.33;;;;;23.26;100.00;101016.53;5070060;28;64170;-74
2023/09/12 04:17:25;;;;;;;;;15.33;13.33;;;;;23.26;100.00;101012.03;5077918;27;45401;-75
2023/09/12 04:19:50;;;;;;;;;10.67;10.67;;;;;23.26;100.00;101021.94;5075761;28;45469;-75
2023/09/12 04:22:16;;;;;;;;;11.00;9.67;;;;;23.23;100.00;101012.16;5077691;27;45530;-74
2023/09/12 04:24:41;;;;;;;;;14.67;14.67;;;;;23.26;100.00;101011.16;5077275;28;47506;-75
2023/09/12 04:27:06;;;;;;;;;14.33;13.67;;;;;23.25;100.00;101012.09;5077408;27;45350;-75
2023/09/12 04:29:34;;;;;;;;;17.33;13.33;;;;;23.27;100.00;101015.59;5076964;27;67899;-76
2023/09/12 04:32:01;;;;;;;;;16.33;13.00;;;;;23.26;100.00;101006.66;5074276;27;45438;-76
2023/09/12 04:34:26;;;;;;;;;17.33;15.33;;;;;23.29;100.00;101015.56;5077240;27;47462;-75
2023/09/12 04:36:53;;;;;;;;;16.00;15.00;;;;;23.32;100.00;101020.81;5075667;27;69751;-76
2023/09/12 04:39:18;;;;;;;;;16.00;14.00;;;;;23.31;100.00;101011.84;5077564;27;45437;-77
2023/09/12 04:41:43;;;;;;;;;14.00;13.00;;;;;23.31;100.00;101010.97;5077068;27;56120;-76
2023/09/12 04:44:09;;;;;;;;;15.00;12.67;;;;;23.30;100.00;101012.81;5076661;27;49904;-75
2023/09/12 04:46:34;;;;;;;;;12.67;9.33;;;;;23.34;100.00;101018.97;5076654;27;45486;-75
2023/09/12 04:48:59;;;;;;;;;17.67;11.00;;;;;23.34;100.00;101024.34;5077148;28;45438;-77
2023/09/12 04:51:26;;;;;;;;;14.67;12.00;;;;;23.32;100.00;101021.69;5074912;28;62866;-75
2023/09/12 04:53:52;;;;;;;;;12.67;10.33;;;;;23.33;100.00;101027.97;5075133;28;45640;-75
2023/09/12 04:56:17;;;;;;;;;11.00;11.00;;;;;23.33;100.00;101028.88;5075555;28;45465;-75
2023/09/12 04:58:43;;;;;;;;;17.33;15.33;;;;;23.37;100.00;101033.16;5076183;28;56903;-74
2023/09/12 05:01:09;;;;;;;;;16.00;15.67;;;;;23.33;100.00;101028.88;5075717;28;58913;-75
2023/09/12 05:03:34;;;;;;;;;18.00;13.33;;;;;23.34;100.00;101027.06;5075559;28;45464;-75
2023/09/12 05:06:00;;;;;;;;;16.33;14.33;;;;;23.32;100.00;101026.22;5075847;28;46520;-75
2023/09/12 05:08:25;;;;;;;;;16.00;14.67;;;;;23.32;100.00;101027.09;5076457;28;45576;-76
2023/09/12 05:10:50;;;;;;;;;16.33;16.33;;;;;23.33;100.00;101027.97;5075801;27;45464;-75
2023/09/12 05:13:16;;;;;;;;;19.67;15.00;;;;;23.31;100.00;101019.06;5075568;28;70202;-74
2023/09/12 05:15:42;;;;;;;;;21.00;17.00;;;;;23.26;100.00;101022.81;5076004;27;45433;-75
2023/09/12 05:18:07;;;;;;;;;18.00;14.33;;;;;23.20;100.00;101025.75;5076929;27;45286;-74
2023/09/12 05:20:33;;;;;;;;;13.67;13.67;;;;;23.18;100.00;101024.06;5072254;28;61891;-76
2023/09/12 05:22:58;;;;;;;;;13.33;13.00;;;;;23.16;100.00;101040.25;5075610;27;47323;-75
2023/09/12 05:25:24;;;;;;;;;18.00;16.67;;;;;23.13;100.00;101043.09;5074588;27;64035;-74
2023/09/12 05:27:49;;;;;;;;;16.33;14.00;;;;;23.09;100.00;101040.56;5075709;28;64296;-75
2023/09/12 05:30:14;;;;;;;;;14.00;11.67;;;;;23.09;100.00;101043.25;5077056;27;45504;-73
2023/09/12 05:32:41;;;;;;;;;16.67;16.00;;;;;23.03;100.00;101044.38;5077414;28;47242;-73
2023/09/12 05:35:06;;;;;;;;;15.00;13.67;;;;;23.03;100.00;101043.50;5076383;27;45447;-75
2023/09/12 05:37:32;;;;;;;;;12.33;11.33;;;;;23.02;100.00;101039.94;5067517;28;45504;-74
2023/09/12 05:39:57;;;;;;;;;17.00;17.00;;;;;23.00;100.00;101034.56;5074587;27;62390;-74
2023/09/12 05:42:22;;;;;;;;;13.00;11.67;;;;;22.98;100.00;101033.75;5074461;27;70428;-75
2023/09/12 05:44:49;;;;;;;;;16.67;15.67;;;;;23.03;100.00;101040.81;5074633;28;45317;-75
2023/09/12 05:47:15;;;;;;;;;15.00;14.67;;;;;23.02;100.00;101029.16;5076119;27;45345;-74
2023/09/12 05:49:40;;;;;;;;;11.33;11.33;;;;;23.07;100.00;101037.94;5076286;27;45480;-73
2023/09/12 05:52:05;;;;;;;;;16.33;13.67;;;;;23.11;100.00;101036.00;5075848;27;46627;-75
2023/09/12 05:54:31;;;;;;;;;17.00;15.00;;;;;23.11;100.00;101036.88;5075444;27;45504;-74
2023/09/12 05:56:56;;;;;;;;;19.67;16.33;;;;;23.14;100.00;101039.44;5074370;28;45467;-75
2023/09/12 05:59:21;;;;;;;;;18.00;14.00;;;;;23.16;100.00;101048.34;5072845;28;63407;-75
2023/09/12 06:01:48;;;;;;;;;23.33;15.67;;;;;23.17;100.00;101052.81;5075610;28;57013;-75
2023/09/12 06:04:13;;;;;;;;;16.67;13.67;;;;;23.17;100.00;101055.50;5076010;27;45504;-75
2023/09/12 06:06:39;;;;;;;;;15.33;14.33;;;;;23.14;100.00;101054.75;5076006;27;45305;-75
2023/09/12 06:09:05;;;;;;;;;18.67;15.33;;;;;23.14;100.00;101052.94;5074803;28;45410;-75
2023/09/12 06:11:31;;;;;;;;;17.33;14.33;;;;;23.16;100.00;101060.94;5073303;28;47380;-75
2023/09/12 06:13:56;;;;;;;;;15.67;13.67;;;;;23.18;100.00;101068.03;5075345;27;45484;-74
2023/09/12 06:16:22;;;;;;;;;21.33;13.67;;;;;23.22;100.00;101071.47;5073574;27;45714;-74
2023/09/12 06:18:48;;;;;;;;;20.33;14.00;;;;;23.22;100.00;101074.19;5071136;27;45402;-74
2023/09/12 06:21:13;;;;;;;;;18.67;16.00;;;;;23.18;100.00;101068.03;5065386;28;46621;-74
2023/09/12 06:23:39;;;;;;;;;19.33;17.00;;;;;23.14;100.00;101066.41;5072295;28;45488;-73
2023/09/12 06:26:04;;;;;;;;;20.67;17.67;;;;;23.09;100.00;101068.38;5073452;28;62091;-74
2023/09/12 06:28:31;;;;;;;;;17.33;15.67;;;;;23.06;100.00;101062.22;5072428;27;64263;-74
2023/09/12 06:30:57;;;;;;;;;14.67;14.67;;;;;22.99;100.00;101064.25;5075782;27;46186;-74
2023/09/12 06:33:23;;;;;;;;;17.33;15.00;;;;;22.98;100.00;101066.09;5075507;27;45452;-74
2023/09/12 06:35:49;;;;;;;;;20.67;18.33;;;;;22.97;100.00;101058.94;5073914;28;45329;-75
2023/09/12 06:38:15;;;;;;;;;18.00;14.33;;;;;22.96;100.00;101057.19;5079804;27;45601;-74
2023/09/12 06:40:42;;;;;;;;;20.00;18.33;;;;;22.93;100.00;101059.97;5079683;27;47219;-75
2023/09/12 06:43:07;;;;;;;;;18.67;17.67;;;;;22.93;100.00;101056.41;5077477;28;45586;-74
2023/09/12 06:45:33;;;;;;;;;20.33;16.67;;;;;22.91;100.00;101061.00;5079233;27;51547;-74
2023/09/12 06:47:58;;;;;;;;;20.33;17.00;;;;;22.92;100.00;101060.91;5078289;28;45451;-74
2023/09/12 06:50:23;;;;;;;;;20.67;17.00;;;;;22.94;100.00;101067.13;5078554;27;70887;-75
2023/09/12 06:52:49;;;;;;;;;18.67;17.33;;;;;23.05;100.00;101060.47;5078777;27;68574;-74
2023/09/12 06:55:14;;;;;;;;;17.67;16.33;;;;;23.07;100.00;101056.78;5078696;27;65674;-75
2023/09/12 06:57:40;;;;;;;;;18.00;16.00;;;;;23.13;100.00;101058.38;5079209;27;45272;-75
2023/09/12 07:00:07;;;;;;;;;21.67;15.67;;;;;23.18;100.00;101064.47;5078623;27;46159;-75
2023/09/12 07:02:32;;;;;;;;;15.67;15.33;;;;;23.23;100.00;101070.56;5074262;28;45175;-75
2023/09/12 07:04:58;;;;;;;;;17.33;14.67;;;;;23.29;100.00;101067.63;5078406;27;61218;-75
2023/09/12 07:07:24;;;;;;;;;12.33;12.33;;;;;23.27;100.00;101067.66;5079572;27;45553;-75
2023/09/12 07:09:49;;;;;;;;;16.33;14.33;;;;;23.26;100.00;101065.03;5078590;27;47652;-75
2023/09/12 07:12:14;;;;;;;;;13.33;13.33;;;;;23.27;100.00;101069.50;5078653;28;45432;-75
2023/09/12 07:14:39;;;;;;;;;14.00;13.00;;;;;23.27;100.00;101070.38;5078432;27;59479;-76
2023/09/12 07:17:06;;;;;;;;;14.33;12.67;;;;;23.26;100.00;101082.09;5078322;28;63231;-75
2023/09/12 07:19:31;;;;;;;;;16.67;13.33;;;;;23.30;100.00;101085.56;5073568;27;47413;-76
2023/09/12 07:21:56;;;;;;;;;14.67;13.00;;;;;23.39;100.00;101087.03;5077908;27;68967;-77
2023/09/12 07:24:26;;;;;;;;;18.00;16.33;;;;;23.47;100.00;101085.78;5078690;28;45457;-76
2023/09/12 07:26:51;;;;;;;;;20.00;17.00;;;;;23.74;100.00;101086.56;5078804;28;45434;-76
2023/09/12 07:29:16;;;;;;;;;15.33;13.67;;;;;23.65;100.00;101072.56;5077119;27;71819;-78
2023/09/12 07:31:41;;;;;;;;;18.67;14.67;;;;;23.70;100.00;101082.25;5076201;28;68094;-76
2023/09/12 07:34:08;;;;;;;;;16.00;13.67;;;;;23.81;100.00;101084.53;5078694;28;45287;-76
2023/09/12 07:36:33;;;;;;;;;18.33;16.33;;;;;23.85;100.00;101093.34;5079262;27;45588;-76
2023/09/12 07:38:58;;;;;;;;;16.00;15.33;;;;;23.86;100.00;101078.91;5078027;28;47424;-76
2023/09/12 07:41:24;;;;;;;;;18.67;17.00;;;;;23.90;100.00;101086.81;5077437;27;45414;-77
2023/09/12 07:43:49;;;;;;;;;14.67;14.67;;;;;23.89;100.00;101082.38;5078346;28;45256;-76
2023/09/12 07:46:14;;;;;;;;;13.00;13.00;;;;;23.85;100.00;101082.56;5076583;28;64802;-76
2023/09/12 07:48:40;;;;;;;;;16.33;15.33;;;;;23.96;100.00;101085.69;5077027;27;46770;-78
2023/09/12 07:51:17;;;;;;;;;18.67;13.33;;;;;23.96;100.00;101083.88;5078140;28;45436;-76
2023/09/12 07:53:43;;;;;;;;;16.67;16.00;;;;;24.09;100.00;101086.97;5077755;28;45503;-76
2023/09/12 07:56:10;;;;;;;;;18.33;16.00;;;;;24.14;100.00;101084.09;5078213;27;46202;-76
2023/09/12 07:58:35;;;;;;;;;15.33;15.33;;;;;24.12;100.00;101081.44;5077162;27;46504;-76
2023/09/12 08:01:05;;;;;;;;;18.00;17.00;;;;;24.21;100.00;101082.88;5077377;28;67058;-76
2023/09/12 08:03:30;;;;;;;;;14.67;14.00;;;;;24.32;100.00;101083.31;5077548;28;45315;-76
2023/09/12 08:05:57;;;;;;;;;15.00;14.00;;;;;24.38;100.00;101080.38;5077815;27;45513;-76
2023/09/12 08:08:23;;;;;;;;;14.00;10.67;;;;;24.29;100.00;101081.63;5076783;28;47566;-77
2023/09/12 08:10:48;;;;;;;;;12.33;10.33;;;;;24.28;100.00;101084.38;5077529;27;45424;-76
2023/09/12 08:13:14;;;;;;;;;10.67;10.33;;;;;24.26;100.00;101088.97;5072226;22;45673;-77
2023/09/12 08:15:39;;;;;;;;;13.00;10.00;;;;;24.26;100.00;101091.66;5071414;27;60586;-77
2023/09/12 08:18:04;;;;;;;;;12.33;10.67;;;;;24.27;100.00;101079.91;5060582;28;67599;-77
2023/09/12 08:20:30;;;;;;;;;10.00;10.00;;;;;24.30;100.00;101085.19;5064669;28;45314;-76
2023/09/12 08:22:55;;;;;;;;;13.33;13.00;;;;;24.13;100.00;101098.50;5076476;27;60195;-76
2023/09/12 08:25:20;;;;;;;;;15.00;15.00;;;;;24.10;100.00;101091.41;5061815;28;45606;-76
2023/09/12 08:27:46;;;;;;;;;12.67;12.67;;;;;24.05;100.00;101102.41;5070247;28;47290;-76
2023/09/12 08:30:12;;;;;;;;;13.67;12.33;;;;;24.01;100.00;101095.34;5060292;28;66372;-77
2023/09/12 08:32:39;;;;;;;;;16.33;11.67;;;;;24.03;100.00;101095.31;5065896;28;46846;-76
2023/09/12 08:35:06;;;;;;;;;12.67;12.33;;;;;24.09;100.00;101111.25;5074255;27;45631;-77
2023/09/12 08:37:31;;;;;;;;;15.33;13.00;;;;;24.08;100.00;101098.72;5067043;27;47498;-76
2023/09/12 08:39:59;;;;;;;;;14.00;13.67;;;;;24.09;100.00;101102.28;5064959;27;51295;-77
2023/09/12 08:42:27;;;;;;;;;16.67;12.00;;;;;24.05;100.00;101098.81;5067141;28;46084;-76
2023/09/12 08:44:52;;;;;;;;;15.67;12.67;;;;;24.09;100.00;101104.97;5071890;27;45419;-77
2023/09/12 08:47:19;;;;;;;;;16.00;15.33;;;;;24.08;100.00;101098.72;5070260;27;58096;-77
2023/09/12 08:49:45;;;;;;;;;15.67;13.33;;;;;24.11;100.00;101100.38;5068965;27;46502;-77
2023/09/12 08:52:10;;;;;;;;;15.67;14.00;;;;;24.11;100.00;101105.78;5068412;28;45423;-77
2023/09/12 08:54:35;;;;;;;;;13.00;13.00;;;;;24.12;100.00;101105.72;5073099;28;46141;-78
2023/09/12 08:57:03;;;;;;;;;14.67;12.67;;;;;24.24;100.00;101107.06;5070636;27;70836;-78
2023/09/12 08:59:29;;;;;;;;;15.00;13.33;;;;;24.32;100.00;101110.28;5066625;28;45454;-77
2023/09/12 09:01:57;;;;;;;;;14.33;14.33;;;;;24.30;100.00;101109.50;5071946;27;45539;-77
2023/09/12 09:04:23;;;;;;;;;17.67;12.00;;;;;24.30;100.00;101104.09;5062679;28;45469;-78
2023/09/12 09:06:49;;;;;;;;;16.67;14.00;;;;;24.29;100.00;101105.03;5070097;28;46699;-77
2023/09/12 09:09:15;;;;;;;;;16.00;14.33;;;;;24.23;100.00;101099.88;5069507;27;45256;-77
2023/09/12 09:11:41;;;;;;;;;12.00;12.00;;;;;24.13;100.00;101098.50;5065427;28;61588;-78
2023/09/12 09:14:06;;;;;;;;;11.67;10.00;;;;;24.03;100.00;101103.41;5070509;27;45295;-76
2023/09/12 09:16:32;;;;;;;;;21.33;17.00;;;;;23.94;100.00;101101.06;5071989;28;46293;-78
2023/09/12 09:19:10;;;;;;;;;12.67;12.67;;;;;23.91;100.00;101101.19;5066240;28;45301;-77
2023/09/12 09:21:36;;;;;;;;;13.00;12.33;;;;;23.82;100.00;101101.56;5061895;28;45463;-77
2023/09/12 09:24:07;;;;;;;;;15.00;13.67;;;;;23.76;100.00;101102.69;5067792;28;46491;-77
2023/09/12 09:26:48;;;;;;;;;19.33;12.00;;;;;23.73;100.00;101102.81;5063683;27;47873;-77
2023/09/12 09:29:20;;;;;;;;;15.67;13.33;;;;;23.72;100.00;101103.75;5064935;28;45382;-77
2023/09/12 09:31:47;;;;;;;;;17.33;14.00;;;;;23.67;100.00;101103.94;5065823;27;45355;-77
2023/09/12 09:34:18;;;;;;;;;24.67;19.00;;;;;23.60;100.00;101109.59;5067212;28;45546;-77
2023/09/12 09:36:51;;;;;;;;;23.33;16.67;;;;;23.44;100.00;101133.56;5069841;27;47771;-77
2023/09/12 09:39:28;;;;;;;;;16.67;14.67;;;;;23.27;100.00;101131.47;5065511;27;45456;-77
2023/09/12 09:41:56;;;;;;;;;17.67;15.00;;;;;23.13;100.00;101139.19;5065519;28;45358;-76
2023/09/12 09:44:26;;;;;;;;;21.33;18.67;;;;;22.99;100.00;101126.22;5065944;28;45593;-78
2023/09/12 09:46:55;;;;;;;;;16.67;14.67;;;;;22.87;100.00;101132.88;5057750;28;46210;-78
2023/09/12 09:49:21;;;;;;;;;19.33;16.67;;;;;22.77;100.00;101144.91;5061819;28;45526;-77
2023/09/12 09:51:46;;;;;;;;;22.33;20.00;;;;;22.73;100.00;101154.00;5058039;28;45445;-77
2023/09/12 09:54:12;;;;;;;;;19.00;16.33;;;;;22.62;100.00;101164.25;5062681;28;45470;-78
2023/09/12 09:56:55;;;;;;;;;19.33;18.00;;;;;22.49;100.00;101174.56;5065702;27;47594;-77
2023/09/12 09:59:25;;;;;;;;;18.00;18.00;;;;;22.36;100.00;101192.03;5068763;27;45451;-79
2023/09/12 10:01:55;;;;;;;;;17.00;16.33;;;;;22.21;100.00;101209.53;5072240;27;46176;-80
2023/09/12 10:04:20;;;;;;;;;22.67;19.33;;;;;22.13;100.00;101220.53;5071914;27;46752;-81
2023/09/12 10:06:46;;;;;;;;;20.00;19.00;;;;;22.08;100.00;101237.72;5063513;28;64963;-80
2023/09/12 10:09:13;;;;;;;;;28.33;25.00;;;;;22.03;100.00;101264.72;5069286;28;46026;-82
2023/09/12 10:11:40;;;;;;;;;31.33;26.00;;;;;21.96;100.00;101271.22;5070345;27;45205;-79
2023/09/12 10:14:06;;;;;;;;;33.00;23.67;;;;;21.90;100.00;101293.81;5070225;28;45591;-79
2023/09/12 10:16:35;;;;;;;;;32.00;31.67;;;;;21.83;100.00;101302.94;5073448;28;45543;-78
2023/09/12 10:19:19;;;;;;;;;33.33;30.00;;;;;21.70;100.00;101298.84;5072328;28;46731;-81
2023/09/12 10:22:01;;;;;;;;;37.00;30.67;;;;;21.60;100.00;101306.28;5073461;28;45485;-80
2023/09/12 10:24:27;;;;;;;;;39.33;30.67;;;;;21.60;100.00;101308.09;5072066;28;45700;-79
2023/09/12 10:26:53;;;;;;;;;33.00;29.33;;;;;21.43;100.00;101314.78;5065234;28;59009;-82
2023/09/12 10:29:19;;;;;;;;;38.67;26.67;;;;;21.28;100.00;101323.22;5066653;28;46610;-82
2023/09/12 10:31:45;;;;;;;;;39.67;30.67;;;;;21.10;100.00;101319.19;5067747;27;61554;-78
2023/09/12 10:34:12;;;;;;;;;42.00;31.00;;;;;21.17;100.00;101322.59;5068922;28;49406;-78
2023/09/12 10:36:39;;;;;;;;;37.00;30.33;;;;;21.22;100.00;101322.50;5066338;28;46220;-78
2023/09/12 10:39:06;;;;;;;;;34.00;30.75;;;;;21.24;100.00;101323.31;5061049;28;45528;-76
2023/09/12 10:41:32;;;;;;;;;36.00;29.67;;;;;21.26;100.00;101327.75;5067778;27;45575;-78
2023/09/12 10:43:58;;;;;;;;;39.00;31.67;;;;;21.27;100.00;101323.25;5072343;27;45626;-79
2023/09/12 10:46:23;;;;;;;;;43.00;32.00;;;;;21.33;100.00;101318.63;5066150;28;47434;-78
2023/09/12 10:48:49;;;;;;;;;31.00;27.67;;;;;21.33;100.00;101328.50;5060027;28;60761;-78
2023/09/12 10:51:16;;;;;;;;;33.33;29.00;;;;;21.31;100.00;101330.34;5060828;28;45481;-79
2023/09/12 10:53:48;;;;;;;;;42.67;30.67;;;;;21.31;100.00;101331.25;5076632;27;45560;-78
2023/09/12 10:56:16;;;;;;;;;33.33;29.00;;;;;21.32;100.00;101324.94;5063734;28;47281;-80
2023/09/12 10:59:06;;;;;;;;;36.00;28.00;;;;;21.50;100.00;101322.69;5067025;28;45426;-82
2023/09/12 11:01:32;;;;;;;;;36.00;31.33;;;;;21.53;100.00;101322.63;5070490;28;45536;-81